Time;durP1;ratioP1;P1;durP2;ratioP2;P2;SDS_P1;SDS_P2;PMS_P1;PMS_P2;Temp;Humidity;BMP_temperature;BMP_pressure;BME280_temperature;BME280_humidity;BME280_pressure;Samples;Min_cycle;Max_cycle;Signal;HPM_P1;HPM_P2
2023/03/21 00:01:13;;;;;;;57.42;49.17;;;;;;;4.74;100.00;101037.56;5062982;28;20077;-82
2023/03/21 00:03:41;;;;;;;58.65;48.03;;;;;;;4.82;100.00;101041.03;5062934;28;20053;-82
2023/03/21 00:06:11;;;;;;;57.15;47.85;;;;;;;4.47;100.00;101042.06;5058997;28;20049;-82
2023/03/21 00:08:39;;;;;;;57.60;50.00;;;;;;;4.85;100.00;101042.53;5059711;28;20079;-82
2023/03/21 00:11:08;;;;;;;57.20;51.25;;;;;;;4.76;100.00;101038.22;5058216;28;20049;-82
2023/03/21 00:13:37;;;;;;;82.05;54.92;;;;;;;4.98;100.00;101047.34;5059193;28;20124;-82
2023/03/21 00:16:06;;;;;;;210.85;86.07;;;;;;;4.88;100.00;101047.47;5062750;28;20049;-82
2023/03/21 00:18:35;;;;;;;191.63;92.32;;;;;;;5.01;100.00;101052.28;5062067;28;20049;-82
2023/03/21 00:21:04;;;;;;;103.20;62.55;;;;;;;5.17;100.00;101056.75;5061844;28;20052;-82
2023/03/21 00:23:32;;;;;;;86.45;53.65;;;;;;;5.27;100.00;101058.25;5061373;28;20076;-82
2023/03/21 00:25:59;;;;;;;65.18;49.33;;;;;;;5.27;100.00;101052.97;5059579;28;20045;-82
2023/03/21 00:28:27;;;;;;;61.38;47.58;;;;;;;4.88;100.00;101058.00;5059180;28;20057;-82
2023/03/21 00:30:58;;;;;;;64.43;50.25;;;;;;;5.10;100.00;101056.56;5050888;28;20065;-82
2023/03/21 00:33:26;;;;;;;68.75;55.33;;;;;;;5.37;100.00;101059.91;5051190;28;20053;-82
2023/03/21 00:35:53;;;;;;;68.30;56.78;;;;;;;5.33;100.00;101053.34;5062337;28;20045;-82
2023/03/21 00:38:21;;;;;;;61.13;49.17;;;;;;;5.56;100.00;101048.22;5058764;28;20506;-82
2023/03/21 00:40:48;;;;;;;69.22;53.20;;;;;;;5.39;100.00;101052.69;5059025;28;20080;-82
2023/03/21 00:43:18;;;;;;;79.88;58.97;;;;;;;5.44;100.00;101045.09;5058327;28;20076;-82
2023/03/21 00:45:45;;;;;;;93.75;60.50;;;;;;;5.33;100.00;101045.44;5059560;28;20050;-82
2023/03/21 00:48:12;;;;;;;85.20;56.47;;;;;;;5.17;100.00;101038.31;5060335;28;20053;-82
2023/03/21 00:50:41;;;;;;;86.10;57.38;;;;;;;5.13;100.00;101027.28;5059263;28;20080;-82
2023/03/21 00:53:08;;;;;;;93.05;61.83;;;;;;;4.97;100.00;101027.25;5053805;28;20064;-82
2023/03/21 00:55:34;;;;;;;94.50;62.35;;;;;;;4.85;100.00;101015.41;5058131;28;20056;-82
2023/03/21 00:58:01;;;;;;;94.60;68.25;;;;;;;5.04;100.00;101015.09;5058679;28;20056;-82
2023/03/21 01:00:28;;;;;;;89.05;58.65;;;;;;;5.22;100.00;101020.22;5059727;28;20049;-82
2023/03/21 01:02:57;;;;;;;82.28;57.72;;;;;;;5.14;100.00;101014.94;5059115;28;20052;-82
2023/03/21 01:08:08;;;;;;;89.30;58.75;;;;;;;5.28;100.00;101014.28;5054477;28;20418;-82
2023/03/21 01:10:38;;;;;;;95.15;60.90;;;;;;;5.50;100.00;101011.00;5056112;28;20123;-82
2023/03/21 01:13:05;;;;;;;79.75;53.28;;;;;;;5.51;100.00;101009.22;5061470;28;20190;-82
2023/03/21 01:15:32;;;;;;;102.63;60.15;;;;;;;5.46;100.00;100995.69;5058521;28;20468;-82
2023/03/21 01:17:58;;;;;;;223.77;107.15;;;;;;;5.56;100.00;100980.53;5058199;28;20049;-82
2023/03/21 01:20:26;;;;;;;87.32;57.15;;;;;;;5.58;100.00;100975.09;5057937;28;20049;-82
2023/03/21 01:22:52;;;;;;;86.30;60.28;;;;;;;5.53;100.00;100961.59;5056522;28;20076;-82
2023/03/21 01:25:21;;;;;;;120.20;68.22;;;;;;;5.38;100.00;100966.72;5061792;28;20053;-82
2023/03/21 01:27:48;;;;;;;128.05;77.35;;;;;;;5.22;100.00;100970.19;5058956;28;20053;-82
2023/03/21 01:30:15;;;;;;;98.28;70.88;;;;;;;5.68;100.00;100955.47;5058012;28;20048;-82
2023/03/21 01:32:41;;;;;;;76.57;62.55;;;;;;;5.60;100.00;100959.94;5064513;28;20050;-82
2023/03/21 01:35:08;;;;;;;72.47;53.80;;;;;;;5.49;100.00;100964.56;5061782;28;20508;-82
2023/03/21 01:37:35;;;;;;;72.15;59.28;;;;;;;5.79;100.00;100966.66;5059875;28;20067;-82
2023/03/21 01:40:03;;;;;;;64.57;57.17;;;;;;;5.72;100.00;100962.06;5060572;28;20080;-82
2023/03/21 01:42:31;;;;;;;63.20;54.40;;;;;;;5.73;100.00;100960.25;5058960;28;20699;-82
2023/03/21 01:45:00;;;;;;;55.08;48.00;;;;;;;5.57;100.00;100968.16;5062478;28;20049;-82
2023/03/21 01:47:27;;;;;;;61.20;54.45;;;;;;;5.56;100.00;100963.91;5060011;28;20076;-82
2023/03/21 01:49:57;;;;;;;62.10;52.55;;;;;;;6.01;100.00;100965.16;5058832;28;20048;-82
2023/03/21 01:52:27;;;;;;;63.03;53.42;;;;;;;5.90;100.00;100956.59;5057881;28;20080;-83
2023/03/21 01:54:56;;;;;;;68.53;56.88;;;;;;;5.97;100.00;100951.50;5064349;28;20056;-82
2023/03/21 01:57:31;;;;;;;56.38;49.65;;;;;;;5.95;100.00;100954.28;5063368;28;20510;-82
2023/03/21 02:00:11;;;;;;;57.83;51.50;;;;;;;5.94;100.00;100947.38;5070717;28;20048;-82
2023/03/21 02:02:49;;;;;;;65.93;59.03;;;;;;;6.00;100.00;100940.59;5065384;28;20056;-82
2023/03/21 02:05:19;;;;;;;61.30;51.28;;;;;;;6.09;100.00;100946.66;5064159;28;20049;-82
2023/03/21 02:07:47;;;;;;;61.13;51.80;;;;;;;6.15;100.00;100935.44;5063887;28;20050;-82
2023/03/21 02:10:16;;;;;;;57.47;49.63;;;;;;;6.11;100.00;100918.28;5068245;28;20103;-82
2023/03/21 02:12:43;;;;;;;67.18;59.90;;;;;;;6.08;100.00;100905.44;5062634;28;20054;-82
2023/03/21 02:15:12;;;;;;;69.13;56.85;;;;;;;6.28;100.00;100908.50;5057050;28;20050;-82
2023/03/21 02:17:43;;;;;;;59.28;48.65;;;;;;;6.41;100.00;100899.03;5064783;28;20081;-83
2023/03/21 02:20:53;;;;;;;64.97;57.05;;;;;;;6.70;100.00;100897.53;5067878;28;20045;-83
2023/03/21 02:24:07;;;;;;;144.48;133.27;;;;;;;6.68;100.00;100906.59;5062066;28;20053;-82
2023/03/21 02:26:57;;;;;;;68.22;60.83;;;;;;;6.79;100.00;100914.13;5067662;28;20080;-83
2023/03/21 02:29:45;;;;;;;68.45;61.35;;;;;;;6.37;100.00;100915.38;5065176;28;20076;-82
2023/03/21 02:32:25;;;;;;;89.35;80.90;;;;;;;6.00;100.00;100919.50;5042654;28;20079;-82
2023/03/21 02:35:08;;;;;;;79.95;68.55;;;;;;;6.54;100.00;100924.84;5062061;28;20045;-82
2023/03/21 02:37:41;;;;;;;75.55;67.70;;;;;;;6.24;100.00;100958.16;5064185;28;20075;-82
2023/03/21 02:40:14;;;;;;;71.47;63.97;;;;;;;6.55;100.00;100978.44;5063710;28;20571;-82
2023/03/21 02:42:53;;;;;;;67.75;60.65;;;;;;;6.36;100.00;100963.88;5066740;28;20042;-82
2023/03/21 02:45:23;;;;;;;67.65;60.67;;;;;;;6.39;100.00;100969.63;5064804;28;20081;-82
2023/03/21 02:47:56;;;;;;;65.18;58.15;;;;;;;6.60;100.00;100960.28;5063206;28;20090;-82
2023/03/21 02:50:28;;;;;;;60.72;53.35;;;;;;;6.54;100.00;100945.97;5063607;28;20071;-83
2023/03/21 02:52:57;;;;;;;64.72;57.80;;;;;;;6.68;100.00;100962.84;5061909;28;20049;-82
2023/03/21 02:55:26;;;;;;;62.47;55.80;;;;;;;6.56;100.00;100953.69;5063402;28;20053;-82
2023/03/21 02:57:54;;;;;;;69.13;58.92;;;;;;;6.60;100.00;100958.47;5067224;28;20099;-82
2023/03/21 03:00:23;;;;;;;63.17;54.75;;;;;;;6.45;100.00;100954.91;5065354;28;20052;-82
2023/03/21 03:02:51;;;;;;;61.38;54.50;;;;;;;6.48;100.00;100966.94;5065555;28;20048;-82
2023/03/21 03:05:20;;;;;;;67.38;57.65;;;;;;;6.21;100.00;100969.03;5062557;28;20132;-83
2023/03/21 03:08:02;;;;;;;64.40;57.90;;;;;;;6.35;100.00;100980.66;5061671;28;20076;-82
2023/03/21 03:10:43;;;;;;;63.47;54.77;;;;;;;6.39;100.00;100979.34;5059236;28;20072;-83
2023/03/21 03:13:21;;;;;;;71.82;61.50;;;;;;;6.38;100.00;100970.63;5058849;28;20330;-82
2023/03/21 03:16:00;;;;;;;65.53;58.53;;;;;;;6.45;100.00;100968.13;5059348;28;20072;-83
2023/03/21 03:18:33;;;;;;;67.65;60.33;;;;;;;6.26;100.00;100958.78;5060218;28;20056;-82
2023/03/21 03:21:08;;;;;;;62.80;54.42;;;;;;;6.28;100.00;100954.16;5059183;28;20049;-82
2023/03/21 03:23:44;;;;;;;106.35;97.65;;;;;;;5.82;100.00;100958.44;5067304;28;20057;-83
2023/03/21 03:26:15;;;;;;;76.75;68.93;;;;;;;6.14;100.00;100957.50;5063074;28;20041;-82
2023/03/21 03:28:47;;;;;;;83.88;75.25;;;;;;;6.32;100.00;100960.72;5069146;28;20072;-82
2023/03/21 03:31:20;;;;;;;114.10;104.45;;;;;;;6.38;100.00;100954.78;5066365;28;20049;-82
2023/03/21 03:33:51;;;;;;;98.70;90.03;;;;;;;6.06;100.00;100962.84;5063618;28;20049;-82
2023/03/21 03:36:20;;;;;;;96.60;88.25;;;;;;;5.86;100.00;100959.72;5060142;28;20068;-82
2023/03/21 03:38:49;;;;;;;75.95;68.40;;;;;;;6.02;100.00;100962.34;5065583;28;20053;-82
2023/03/21 03:41:21;;;;;;;74.32;66.45;;;;;;;5.92;100.00;100966.94;5064026;28;20049;-82
2023/03/21 03:43:52;;;;;;;74.30;66.38;;;;;;;5.90;100.00;100967.13;5060908;28;20055;-82
2023/03/21 03:46:26;;;;;;;97.95;88.72;;;;;;;6.04;100.00;100967.44;5064483;28;20498;-82
2023/03/21 03:48:57;;;;;;;106.90;97.70;;;;;;;5.97;100.00;100968.13;5062311;28;20608;-83
2023/03/21 03:51:28;;;;;;;91.75;83.47;;;;;;;6.15;100.00;100973.19;5060827;28;20474;-82
2023/03/21 03:54:00;;;;;;;83.20;75.47;;;;;;;6.13;100.00;100969.06;5060781;28;20049;-82
2023/03/21 03:56:27;;;;;;;78.72;70.82;;;;;;;6.07;100.00;100964.47;5066947;28;20043;-83
2023/03/21 03:58:56;;;;;;;68.70;56.28;;;;;;;6.01;100.00;100954.59;5063069;28;20045;-82
2023/03/21 04:01:22;;;;;;;66.97;51.53;;;;;;;5.53;100.00;100965.06;5062636;28;20049;-83
2023/03/21 04:03:49;;;;;;;76.80;69.10;;;;;;;5.41;100.00;100980.38;5062719;28;20057;-82
2023/03/21 04:06:17;;;;;;;81.47;74.13;;;;;;;5.36;100.00;100982.69;5063373;28;20049;-82
2023/03/21 04:08:44;;;;;;;81.00;73.35;;;;;;;5.54;100.00;100979.03;5064492;28;20071;-82
2023/03/21 04:11:15;;;;;;;82.53;74.82;;;;;;;5.72;100.00;100979.69;5063646;28;20060;-82
2023/03/21 04:13:41;;;;;;;77.55;69.75;;;;;;;5.47;100.00;100978.88;5060576;28;20057;-82
2023/03/21 04:16:10;;;;;;;95.93;88.00;;;;;;;5.47;100.00;100998.16;5061897;28;20079;-82
2023/03/21 04:18:38;;;;;;;57.88;47.08;;;;;;;5.43;100.00;100988.13;5061937;28;20092;-82
2023/03/21 04:21:08;;;;;;;54.95;45.40;;;;;;;5.14;100.00;100996.50;5061602;28;20083;-82
2023/03/21 04:23:35;;;;;;;67.47;60.55;;;;;;;4.89;100.00;100993.84;5059822;28;20049;-82
2023/03/21 04:26:03;;;;;;;74.10;66.80;;;;;;;5.34;100.00;101005.75;5059816;28;20132;-82
2023/03/21 04:28:32;;;;;;;72.03;64.57;;;;;;;5.46;100.00;101007.06;5058732;28;20053;-82
2023/03/21 04:30:59;;;;;;;73.82;66.38;;;;;;;5.41;100.00;101003.25;5051964;28;20045;-82
2023/03/21 04:33:26;;;;;;;74.85;67.60;;;;;;;5.63;100.00;101007.88;5061223;28;20079;-82
2023/03/21 04:35:54;;;;;;;71.60;64.13;;;;;;;5.55;100.00;100996.53;5061793;28;20052;-82
2023/03/21 04:38:22;;;;;;;66.35;58.25;;;;;;;5.68;100.00;100989.72;5060505;28;20112;-82
2023/03/21 04:40:48;;;;;;;64.32;48.97;;;;;;;5.59;100.00;100992.56;5064227;28;20050;-82
2023/03/21 04:43:15;;;;;;;65.85;52.75;;;;;;;5.80;100.00;101006.03;5059570;28;20049;-82
2023/03/21 04:45:43;;;;;;;76.55;68.15;;;;;;;5.86;100.00;101009.81;5061113;28;20537;-82
2023/03/21 04:48:12;;;;;;;80.60;72.82;;;;;;;5.95;100.00;101009.66;5061909;28;20075;-82
2023/03/21 04:50:39;;;;;;;78.93;71.35;;;;;;;5.96;100.00;101000.78;5061739;28;20099;-82
2023/03/21 04:53:06;;;;;;;68.25;55.58;;;;;;;6.09;100.00;101002.06;5060136;28;20053;-83
2023/03/21 04:55:32;;;;;;;62.15;54.60;;;;;;;6.27;100.00;100999.19;5062218;28;20053;-82
2023/03/21 04:58:00;;;;;;;63.55;56.63;;;;;;;6.24;100.00;101008.25;5059826;28;20045;-82
2023/03/21 05:00:26;;;;;;;66.65;59.60;;;;;;;6.17;100.00;101002.00;5056230;28;20064;-82
2023/03/21 05:02:56;;;;;;;70.60;63.58;;;;;;;6.38;100.00;100994.38;5061682;28;20106;-82
2023/03/21 05:05:23;;;;;;;68.70;56.33;;;;;;;6.53;100.00;100997.06;5061001;28;20053;-82
2023/03/21 05:07:50;;;;;;;68.90;61.47;;;;;;;6.57;100.00;100994.94;5060754;28;20046;-82
2023/03/21 05:10:17;;;;;;;63.67;56.38;;;;;;;6.69;100.00;100993.56;5066590;28;20053;-82
2023/03/21 05:12:43;;;;;;;67.93;55.20;;;;;;;6.47;100.00;100991.66;5062264;28;20068;-82
2023/03/21 05:15:10;;;;;;;65.88;50.53;;;;;;;6.65;100.00;100992.25;5059629;28;20049;-83
2023/03/21 05:17:37;;;;;;;73.05;55.10;;;;;;;6.70;100.00;100995.19;5061194;28;20046;-82
2023/03/21 05:20:09;;;;;;;75.68;58.70;;;;;;;6.98;100.00;100992.88;5062011;28;20041;-83
2023/03/21 05:22:39;;;;;;;76.88;56.97;;;;;;;6.95;100.00;100987.13;5061037;28;20045;-82
2023/03/21 05:25:07;;;;;;;66.70;56.13;;;;;;;6.82;100.00;100985.06;5062222;28;20052;-82
2023/03/21 05:27:34;;;;;;;67.10;55.40;;;;;;;6.91;100.00;101002.50;5061352;28;20110;-82
2023/03/21 05:30:07;;;;;;;73.95;57.17;;;;;;;6.86;100.00;101002.19;5055429;28;20434;-83
2023/03/21 05:32:34;;;;;;;64.82;49.45;;;;;;;6.93;100.00;100997.88;5063481;28;20081;-83
2023/03/21 05:35:00;;;;;;;71.70;51.17;;;;;;;7.01;100.00;100994.34;5069120;28;20102;-82
2023/03/21 05:37:29;;;;;;;65.03;52.25;;;;;;;7.14;100.00;100999.03;5067685;28;20052;-83
2023/03/21 05:39:55;;;;;;;61.47;49.53;;;;;;;7.20;100.00;100991.25;5065398;28;20045;-83
2023/03/21 05:42:22;;;;;;;58.63;47.85;;;;;;;7.05;100.00;100987.69;5061204;28;20486;-83
2023/03/21 05:44:49;;;;;;;56.08;47.67;;;;;;;7.08;100.00;100982.91;5064624;28;20078;-83
2023/03/21 05:47:18;;;;;;;58.17;47.78;;;;;;;7.22;100.00;100986.59;5066954;28;20052;-82
2023/03/21 05:49:46;;;;;;;59.83;50.60;;;;;;;7.28;100.00;100977.13;5068310;28;20060;-82
2023/03/21 05:52:12;;;;;;;65.13;58.03;;;;;;;7.12;100.00;100983.38;5064575;28;20059;-83
2023/03/21 05:54:41;;;;;;;63.28;50.63;;;;;;;7.44;100.00;100978.81;5062961;28;20106;-83
2023/03/21 05:57:08;;;;;;;69.15;58.03;;;;;;;7.43;100.00;100979.81;5062099;28;20045;-83
2023/03/21 05:59:35;;;;;;;60.25;51.03;;;;;;;7.37;100.00;100978.69;5055960;28;20049;-83
2023/03/21 06:02:01;;;;;;;61.30;50.97;;;;;;;7.52;100.00;100981.38;5060268;28;20050;-83
2023/03/21 06:04:28;;;;;;;63.63;50.28;;;;;;;7.58;100.00;100985.94;5064600;28;20048;-82
2023/03/21 06:06:55;;;;;;;59.72;49.58;;;;;;;7.66;100.00;100985.06;5059910;28;20050;-82
2023/03/21 06:09:23;;;;;;;66.18;50.83;;;;;;;7.89;100.00;100984.97;5067221;28;20045;-83
2023/03/21 06:11:53;;;;;;;59.03;52.65;;;;;;;8.15;100.00;100976.59;5069246;28;20048;-83
2023/03/21 06:14:21;;;;;;;54.40;47.83;;;;;;;8.37;100.00;100986.25;5068357;28;20045;-82
2023/03/21 06:16:48;;;;;;;58.20;48.05;;;;;;;8.38;100.00;100987.06;5068707;28;20102;-83
2023/03/21 06:19:15;;;;;;;57.33;48.83;;;;;;;8.67;100.00;100994.16;5062855;28;20056;-83
2023/03/21 06:21:41;;;;;;;57.65;51.40;;;;;;;8.61;100.00;100995.72;5060109;28;20041;-83
2023/03/21 06:24:09;;;;;;;60.65;51.10;;;;;;;9.03;100.00;101002.09;5056056;28;20046;-83
2023/03/21 06:26:35;;;;;;;60.38;51.13;;;;;;;9.09;100.00;101003.16;5066438;28;20053;-83
2023/03/21 06:29:04;;;;;;;64.45;52.17;;;;;;;9.41;100.00;101004.50;5061871;28;20115;-83
2023/03/21 06:31:30;;;;;;;58.30;51.38;;;;;;;9.40;100.00;101010.78;5064449;28;20052;-83
2023/03/21 06:33:57;;;;;;;57.70;47.13;;;;;;;9.29;100.00;101006.84;5062378;28;20076;-83
2023/03/21 06:36:24;;;;;;;52.80;47.30;;;;;;;9.48;100.00;101009.84;5064616;28;20045;-83
2023/03/21 06:38:51;;;;;;;59.65;48.80;;;;;;;9.72;100.00;101008.59;5064219;28;20109;-82
2023/03/21 06:41:18;;;;;;;70.47;63.53;;;;;;;9.99;100.00;101007.78;5063154;28;20053;-83
2023/03/21 06:43:45;;;;;;;70.85;63.22;;;;;;;10.44;100.00;101007.41;5065168;28;20053;-83
2023/03/21 06:46:13;;;;;;;60.97;49.65;;;;;;;10.62;100.00;101015.69;5064400;28;20045;-83
2023/03/21 06:48:43;;;;;;;60.13;47.30;;;;;;;10.64;100.00;101015.47;5071755;28;20098;-83
2023/03/21 06:51:11;;;;;;;56.60;49.05;;;;;;;10.83;100.00;101016.53;5062614;28;20052;-83
2023/03/21 06:53:38;;;;;;;58.58;50.92;;;;;;;10.99;100.00;101013.53;5070559;28;20103;-83
2023/03/21 06:56:06;;;;;;;56.28;50.33;;;;;;;11.37;100.00;101018.28;5067423;28;20072;-83
2023/03/21 06:58:32;;;;;;;54.03;48.40;;;;;;;11.32;100.00;101008.25;5067910;28;20077;-83
2023/03/21 07:01:00;;;;;;;54.38;48.60;;;;;;;11.61;100.00;101016.84;5068772;28;20088;-83
2023/03/21 07:03:29;;;;;;;52.88;47.15;;;;;;;11.63;100.00;101017.47;4719835;28;10000285;-83
2023/03/21 07:05:55;;;;;;;54.13;48.58;;;;;;;11.73;100.00;101007.22;5059192;28;20071;-82
2023/03/21 07:08:22;;;;;;;52.95;47.72;;;;;;;11.95;100.00;101005.16;5060161;28;20033;-82
2023/03/21 07:10:49;;;;;;;48.88;44.25;;;;;;;12.07;100.00;100989.38;5061850;28;20095;-83
2023/03/21 07:13:16;;;;;;;47.28;42.88;;;;;;;12.43;100.00;100996.03;5061245;28;20410;-82
2023/03/21 07:15:43;;;;;;;49.78;44.97;;;;;;;12.50;100.00;100994.16;5060568;28;20046;-83
2023/03/21 07:18:10;;;;;;;47.67;42.72;;;;;;;12.68;100.00;100990.78;5062925;28;20046;-83
2023/03/21 07:20:38;;;;;;;49.88;44.83;;;;;;;13.03;100.00;101000.00;5060515;28;20041;-83
2023/03/21 07:23:06;;;;;;;47.78;42.78;;;;;;;12.80;100.00;100995.25;5062851;28;20045;-83
2023/03/21 07:25:33;;;;;;;50.92;45.95;;;;;;;13.41;100.00;100987.69;5058680;28;20053;-83
2023/03/21 07:28:00;;;;;;;46.92;42.40;;;;;;;13.32;100.00;100980.97;5059349;28;20113;-83
2023/03/21 07:30:27;;;;;;;50.42;46.03;;;;;;;13.14;100.00;100987.03;5064224;28;20045;-83
2023/03/21 07:32:54;;;;;;;50.47;45.60;;;;;;;13.14;100.00;100979.84;5053130;28;20100;-83
2023/03/21 07:35:21;;;;;;;52.47;47.92;;;;;;;13.70;100.00;100983.50;5063120;28;20038;-83
2023/03/21 07:37:49;;;;;;;53.80;48.92;;;;;;;14.13;100.00;100985.31;5056496;28;20045;-83
2023/03/21 07:40:17;;;;;;;48.67;44.25;;;;;;;14.42;100.00;100975.75;5059454;28;20707;-83
2023/03/21 07:42:43;;;;;;;42.55;38.55;;;;;;;14.71;100.00;100971.50;5057121;28;20044;-83
2023/03/21 07:45:13;;;;;;;48.28;42.85;;;;;;;14.79;100.00;100979.16;5059469;28;20095;-83
2023/03/21 07:47:40;;;;;;;45.00;40.45;;;;;;;15.28;100.00;100973.69;5058415;28;20049;-83
2023/03/21 07:50:08;;;;;;;48.33;39.92;;;;;;;15.05;100.00;100969.94;5063588;28;20045;-83
2023/03/21 07:52:35;;;;;;;49.92;39.83;;;;;;;14.72;100.00;100966.94;5061967;28;20048;-83
2023/03/21 07:55:03;;;;;;;55.28;42.13;;;;;;;14.44;100.00;100973.66;5062611;28;20045;-83
2023/03/21 07:57:30;;;;;;;56.00;39.38;;;;;;;14.13;100.00;100975.47;5066012;28;20041;-83
2023/03/21 07:59:57;;;;;;;68.47;40.95;;;;;;;13.64;100.00;100987.88;5058594;28;20048;-83
2023/03/21 08:02:24;;;;;;;64.57;46.10;;;;;;;13.22;100.00;100992.09;5056999;28;20076;-83
2023/03/21 08:04:51;;;;;;;64.68;44.90;;;;;;;13.22;100.00;101000.09;5064049;28;20122;-83
2023/03/21 08:07:18;;;;;;;54.67;43.63;;;;;;;13.78;100.00;100996.56;5061945;28;20053;-83
2023/03/21 08:09:45;;;;;;;52.72;44.08;;;;;;;13.94;100.00;100996.00;5059664;28;20070;-83
2023/03/21 08:12:13;;;;;;;52.35;44.80;;;;;;;14.87;100.00;100994.09;5066235;28;20057;-82
2023/03/21 08:14:40;;;;;;;54.42;41.45;;;;;;;14.41;100.00;100995.50;5062579;28;20062;-83
2023/03/21 08:17:08;;;;;;;53.83;40.75;;;;;;;13.83;100.00;100995.91;5062628;28;20106;-83
2023/03/21 08:19:36;;;;;;;66.00;43.85;;;;;;;14.42;100.00;100989.91;5062695;28;20060;-83
2023/03/21 08:22:04;;;;;;;45.45;38.42;;;;;;;13.81;100.00;100998.81;5066396;28;20041;-83
2023/03/21 08:24:32;;;;;;;56.88;41.72;;;;;;;14.78;100.00;100992.78;5057617;28;20048;-82
2023/03/21 08:26:59;;;;;;;51.22;40.22;;;;;;;14.79;100.00;100994.41;5061105;28;20378;-83
2023/03/21 08:29:28;;;;;;;51.17;37.63;;;;;;;15.91;100.00;100994.47;5057313;28;20463;-83
2023/03/21 08:31:55;;;;;;;43.38;35.78;;;;;;;16.58;100.00;100979.75;5061484;28;20037;-82
2023/03/21 08:34:21;;;;;;;42.22;34.03;;;;;;;14.81;100.00;100986.97;5060621;28;20088;-84
2023/03/21 08:36:48;;;;;;;44.25;37.88;;;;;;;14.07;100.00;100981.72;5066329;28;20053;-83
2023/03/21 08:39:15;;;;;;;46.33;34.88;;;;;;;13.86;100.00;100993.63;5059960;28;20045;-83
2023/03/21 08:41:42;;;;;;;48.15;37.10;;;;;;;14.39;100.00;100981.53;5056043;28;20071;-83
2023/03/21 08:44:10;;;;;;;43.47;34.28;;;;;;;14.18;100.00;100982.81;5054493;28;20046;-83
2023/03/21 08:46:38;;;;;;;51.63;41.90;;;;;;;15.11;100.00;100992.31;5062469;28;20114;-83
2023/03/21 08:49:05;;;;;;;46.30;38.50;;;;;;;15.39;100.00;100978.25;5060036;28;20058;-83
2023/03/21 08:51:32;;;;;;;45.60;40.35;;;;;;;15.75;100.00;100981.81;5064201;28;20058;-83
2023/03/21 08:53:59;;;;;;;51.60;41.88;;;;;;;16.27;100.00;100985.31;5061199;28;20531;-83
2023/03/21 08:56:26;;;;;;;40.80;31.52;;;;;;;14.11;100.00;100976.72;5061158;28;20072;-83
2023/03/21 08:58:53;;;;;;;45.25;34.97;;;;;;;15.77;100.00;100975.16;5059350;28;20049;-82
2023/03/21 09:01:19;;;;;;;45.83;35.67;;;;;;;15.98;100.00;100981.78;5058860;28;20076;-83
2023/03/21 09:03:48;;;;;;;43.65;35.30;;;;;;;14.41;100.00;100971.44;5061124;28;20140;-83
2023/03/21 09:06:14;;;;;;;45.45;36.08;;;;;;;15.42;100.00;100968.97;5063926;28;20053;-83
2023/03/21 09:08:42;;;;;;;42.50;34.42;;;;;;;14.77;100.00;100964.41;5060064;28;20054;-83
2023/03/21 09:11:09;;;;;;;41.85;36.67;;;;;;;15.95;100.00;100955.47;5064474;28;20040;-83
2023/03/21 09:13:36;;;;;;;47.95;38.65;;;;;;;17.58;100.00;100959.47;5058161;28;20049;-83
2023/03/21 09:16:03;;;;;;;49.20;36.28;;;;;;;15.54;100.00;100964.44;5061226;28;20052;-83
2023/03/21 09:18:44;;;;;;;49.70;33.05;;;;;;;15.70;100.00;100960.25;5059145;28;20045;-83
2023/03/21 09:21:13;;;;;;;42.47;36.28;;;;;;;17.33;100.00;100963.38;5065517;28;20057;-84
2023/03/21 09:23:40;;;;;;;44.67;35.90;;;;;;;18.13;100.00;100955.13;5058441;28;20045;-83
2023/03/21 09:26:08;;;;;;;36.60;32.78;;;;;;;17.90;100.00;100958.88;5057718;28;20042;-83
2023/03/21 09:28:36;;;;;;;33.63;28.73;;;;;;;17.07;98.89;100966.72;5060250;28;20053;-84
2023/03/21 09:31:03;;;;;;;35.50;28.85;;;;;;;17.07;100.00;100962.19;5063821;28;20049;-83
2023/03/21 09:33:31;;;;;;;34.03;30.40;;;;;;;17.82;100.00;100960.94;5061287;28;20049;-83
2023/03/21 09:36:00;;;;;;;34.78;30.92;;;;;;;17.73;100.00;100954.31;5056403;28;20041;-83
2023/03/21 09:38:35;;;;;;;44.88;32.78;;;;;;;19.31;100.00;100946.34;5054065;28;20049;-83
2023/03/21 09:41:13;;;;;;;41.92;29.90;;;;;;;18.45;100.00;100947.97;5055660;28;20292;-83
2023/03/21 09:43:51;;;;;;;35.40;30.80;;;;;;;16.31;100.00;100956.22;5059008;28;20042;-83
2023/03/21 09:46:25;;;;;;;36.13;32.45;;;;;;;15.56;100.00;100963.16;5059981;28;20046;-83
2023/03/21 09:48:57;;;;;;;39.45;35.47;;;;;;;15.22;100.00;100969.28;5056300;28;20045;-83
2023/03/21 09:51:28;;;;;;;42.67;38.47;;;;;;;17.40;100.00;100968.59;5058506;28;20057;-83
2023/03/21 09:54:00;;;;;;;40.15;36.55;;;;;;;17.97;100.00;100971.06;5059572;28;20056;-84
2023/03/21 09:56:28;;;;;;;40.42;36.80;;;;;;;16.31;100.00;100969.59;5061758;28;20052;-83
2023/03/21 09:58:59;;;;;;;41.72;38.08;;;;;;;16.89;100.00;100976.63;5057203;28;20083;-83
2023/03/21 10:01:28;;;;;;;41.80;38.30;;;;;;;17.31;100.00;100972.75;5053854;28;20636;-83
2023/03/21 10:03:57;;;;;;;39.70;36.00;;;;;;;17.42;100.00;100973.72;4711303;28;10000133;-83
2023/03/21 10:06:28;;;;;;;43.35;39.60;;;;;;;16.91;100.00;100974.53;5061092;28;20049;-83
2023/03/21 10:09:00;;;;;;;46.25;42.35;;;;;;;17.61;100.00;100978.59;5059019;28;20109;-83
2023/03/21 10:11:31;;;;;;;41.30;37.67;;;;;;;15.87;100.00;100958.50;5057520;28;20029;-83
2023/03/21 10:14:03;;;;;;;44.15;40.03;;;;;;;17.15;100.00;100972.50;5054578;28;20300;-83
2023/03/21 10:16:33;;;;;;;36.35;32.75;;;;;;;17.55;100.00;100971.53;5060912;28;20072;-83
2023/03/21 10:19:02;;;;;;;35.22;31.52;;;;;;;16.65;100.00;100973.19;5061645;28;20072;-83
2023/03/21 10:21:30;;;;;;;34.40;30.70;;;;;;;16.58;100.00;100960.97;5063701;28;20072;-83
2023/03/21 10:24:00;;;;;;;33.15;29.83;;;;;;;17.35;100.00;100960.47;5061827;28;20643;-83
2023/03/21 10:26:29;;;;;;;34.60;31.50;;;;;;;16.78;100.00;100958.72;5061118;28;20045;-83
2023/03/21 10:28:59;;;;;;;35.22;31.83;;;;;;;16.62;100.00;100962.97;5061810;28;20072;-83
2023/03/21 10:31:28;;;;;;;38.38;34.72;;;;;;;16.93;100.00;100950.13;5060669;28;20044;-83
2023/03/21 10:34:00;;;;;;;35.85;32.42;;;;;;;16.92;100.00;100948.50;5068879;28;20132;-83
2023/03/21 10:36:29;;;;;;;33.03;30.02;;;;;;;16.44;100.00;100947.06;5063439;28;20059;-83
2023/03/21 10:39:03;;;;;;;33.15;29.58;;;;;;;15.82;100.00;100949.53;5061248;28;20041;-82
2023/03/21 10:41:30;;;;;;;34.15;30.48;;;;;;;15.54;100.00;100948.38;5062793;28;20057;-83
2023/03/21 10:44:09;;;;;;;35.85;32.15;;;;;;;16.34;100.00;100941.50;5056595;28;20313;-83
2023/03/21 10:46:36;;;;;;;39.78;35.97;;;;;;;16.31;100.00;100941.97;5059645;28;20045;-83
2023/03/21 10:49:06;;;;;;;40.55;36.45;;;;;;;16.19;100.00;100934.81;5061269;28;20042;-83
2023/03/21 10:51:36;;;;;;;55.90;51.42;;;;;;;16.41;100.00;100937.63;5063410;28;20568;-83
2023/03/21 10:54:08;;;;;;;38.63;33.28;;;;;;;16.41;100.00;100934.94;5061114;28;20136;-83
2023/03/21 10:56:38;;;;;;;36.63;33.13;;;;;;;15.80;100.00;100925.69;5055583;28;20088;-83
2023/03/21 10:59:09;;;;;;;34.20;30.63;;;;;;;15.78;100.00;100928.59;5063941;28;20053;-82
2023/03/21 11:01:39;;;;;;;36.65;32.83;;;;;;;15.81;100.00;100932.66;5065055;28;20129;-84
2023/03/21 11:04:14;;;;;;;36.75;33.25;;;;;;;16.65;100.00;100935.66;5067913;28;20087;-83
2023/03/21 11:06:45;;;;;;;31.80;28.58;;;;;;;15.60;100.00;100930.56;5066503;28;20048;-83
2023/03/21 11:09:19;;;;;;;38.78;34.92;;;;;;;16.05;100.00;100925.41;5060085;28;20063;-83
2023/03/21 11:11:52;;;;;;;37.65;30.20;;;;;;;16.35;100.00;100921.69;5064185;28;20617;-83
2023/03/21 11:14:31;;;;;;;36.78;33.05;;;;;;;16.19;100.00;100921.41;5064158;28;20041;-83
2023/03/21 11:16:58;;;;;;;37.88;33.78;;;;;;;16.05;100.00;100917.34;5062212;28;20052;-83